createdAt,value
2019-04-21T00:01:05.712Z,5.41
2019-04-21T00:03:38.431Z,5.31
2019-04-21T00:06:24.972Z,5.20
2019-04-21T00:08:56.611Z,5.15
2019-04-21T00:11:26.457Z,5.08
2019-04-21T00:13:47.001Z,4.97
2019-04-21T00:16:07.465Z,4.97
2019-04-21T00:18:48.494Z,4.97
2019-04-21T00:21:21.158Z,5.01
2019-04-21T00:23:56.145Z,4.95
2019-04-21T00:26:31.766Z,4.85
2019-04-21T00:29:04.098Z,4.86
2019-04-21T00:31:30.899Z,4.84
2019-04-21T00:33:45.992Z,4.87
2019-04-21T00:36:18.580Z,4.86
2019-04-21T00:39:14.356Z,4.88
2019-04-21T00:41:40.238Z,4.86
2019-04-21T00:43:57.065Z,4.89
2019-04-21T00:46:32.360Z,4.79
2019-04-21T00:49:03.106Z,4.82
2019-04-21T00:51:46.638Z,4.78
2019-04-21T00:54:16.755Z,4.81
2019-04-21T00:56:45.577Z,4.91
2019-04-21T00:59:18.018Z,4.88
2019-04-21T01:01:46.221Z,4.90
2019-04-21T01:04:16.884Z,4.95
2019-04-21T01:06:53.039Z,4.98
2019-04-21T01:09:09.427Z,4.93
2019-04-21T01:11:44.978Z,4.85
2019-04-21T01:14:22.701Z,4.94
2019-04-21T01:16:48.573Z,4.99
2019-04-21T01:19:17.351Z,5.01
2019-04-21T01:21:25.878Z,4.93
2019-04-21T01:24:04.891Z,5.01
2019-04-21T01:26:39.352Z,4.98
2019-04-21T01:29:13.264Z,4.95
2019-04-21T01:31:41.648Z,4.96
2019-04-21T01:34:14.838Z,4.94
2019-04-21T01:36:46.140Z,4.96
2019-04-21T01:39:21.298Z,4.94
2019-04-21T01:41:51.309Z,4.97
2019-04-21T01:44:25.741Z,5.01
2019-04-21T01:46:45.604Z,4.91
2019-04-21T01:49:11.558Z,4.90
2019-04-21T01:52:02.909Z,4.90
2019-04-21T01:54:33.265Z,4.83
2019-04-21T01:57:07.313Z,4.75
2019-04-21T01:59:35.349Z,4.77
2019-04-21T02:02:13.361Z,4.71
2019-04-21T02:07:14.777Z,4.38
2019-04-21T02:09:44.335Z,4.25
2019-04-21T02:12:13.516Z,4.26
2019-04-21T02:14:50.369Z,4.26
2019-04-21T02:17:14.568Z,4.23
2019-04-21T02:19:39.048Z,4.27
2019-04-21T02:22:10.790Z,4.09
2019-04-21T02:24:55.315Z,4.09
2019-04-21T02:27:19.225Z,4.13
2019-04-21T02:29:51.227Z,4.16
2019-04-21T02:32:26.090Z,4.18
2019-04-21T02:35:04.131Z,4.10
2019-04-21T02:37:38.343Z,3.85
2019-04-21T02:40:04.247Z,3.84
2019-04-21T02:42:32.898Z,3.91
2019-04-21T02:45:05.495Z,3.87
2019-04-21T02:50:21.593Z,3.86
2019-04-21T02:55:04.062Z,3.69
2019-04-21T02:57:35.066Z,3.68
2019-04-21T03:00:06.909Z,3.71
2019-04-21T03:07:47.869Z,3.87
2019-04-21T03:10:18.270Z,3.84
2019-04-21T03:20:19.047Z,3.69
2019-04-21T03:25:33.565Z,3.44
2019-04-21T03:30:31.887Z,3.37
2019-04-21T03:33:23.881Z,3.25
2019-04-21T03:38:13.086Z,3.50
2019-04-21T03:42:47.846Z,3.55
2019-04-21T03:45:32.721Z,3.48
2019-04-21T03:47:57.120Z,3.41
2019-04-21T03:50:27.898Z,3.34
2019-04-21T03:58:15.252Z,3.55
2019-04-21T04:01:04.140Z,3.62
2019-04-21T04:06:08.041Z,3.79
2019-04-21T04:09:12.794Z,3.88
2019-04-21T04:11:43.763Z,4.51
2019-04-21T04:16:31.285Z,5.24
2019-04-21T04:18:59.124Z,5.15
2019-04-21T04:21:37.563Z,4.98
2019-04-21T04:24:09.026Z,4.83
2019-04-21T04:26:31.562Z,5.11
2019-04-21T04:36:50.278Z,5.29
2019-04-21T04:49:40.452Z,6.28
2019-04-21T04:52:09.370Z,6.38
2019-04-21T04:54:41.749Z,6.50
2019-04-21T04:57:10.000Z,6.67
2019-04-21T05:02:15.272Z,7.09
2019-04-21T05:04:35.428Z,7.28
2019-04-21T05:12:17.541Z,7.70
2019-04-21T05:14:39.045Z,7.80
2019-04-21T05:17:15.760Z,7.87
2019-04-21T05:19:44.476Z,8.20
2019-04-21T05:22:12.170Z,8.25
2019-04-21T05:24:28.411Z,8.54
2019-04-21T05:26:59.565Z,8.49
2019-04-21T05:29:47.205Z,8.74
2019-04-21T05:35:01.604Z,9.38
2019-04-21T05:40:37.107Z,9.83
2019-04-21T05:43:17.134Z,9.94
2019-04-21T05:45:48.787Z,10.01
2019-04-21T05:48:23.156Z,10.30
2019-04-21T05:50:49.529Z,10.56
2019-04-21T05:53:31.453Z,10.72
2019-04-21T05:55:57.773Z,10.79
2019-04-21T05:58:29.912Z,10.96
2019-04-21T06:06:15.106Z,11.38
2019-04-21T06:08:46.913Z,11.34
2019-04-21T06:11:13.182Z,11.61
2019-04-21T06:13:48.176Z,11.94
2019-04-21T06:16:13.866Z,12.00
2019-04-21T06:18:47.963Z,12.24
2019-04-21T06:21:16.547Z,12.37
2019-04-21T06:23:45.604Z,12.59
2019-04-21T06:26:46.877Z,12.66
2019-04-21T06:31:40.920Z,12.91
2019-04-21T06:33:54.084Z,13.09
2019-04-21T06:39:27.454Z,13.55
2019-04-21T06:41:53.116Z,13.71
2019-04-21T06:44:27.315Z,13.98
2019-04-21T06:47:03.348Z,14.30
2019-04-21T06:49:27.552Z,14.49
2019-04-21T06:52:11.443Z,14.46
2019-04-21T06:54:33.887Z,14.74
2019-04-21T06:56:56.778Z,14.88
2019-04-21T06:59:34.141Z,14.85
2019-04-21T07:02:29.035Z,14.87
2019-04-21T07:04:36.814Z,15.26
2019-04-21T07:07:05.177Z,15.43
2019-04-21T07:09:36.421Z,15.63
2019-04-21T07:12:07.482Z,15.47
2019-04-21T07:20:02.092Z,16.04
2019-04-21T07:22:19.461Z,16.00
2019-04-21T07:24:42.898Z,16.68
2019-04-21T07:27:19.008Z,16.60
2019-04-21T07:29:50.677Z,16.74
2019-04-21T07:32:14.104Z,16.66
2019-04-21T07:34:52.282Z,17.10
2019-04-21T07:37:17.390Z,17.41
2019-04-21T07:39:51.211Z,17.33
2019-04-21T07:42:18.507Z,17.46
2019-04-21T07:44:46.354Z,17.41
2019-04-21T07:47:26.494Z,17.60
2019-04-21T07:50:00.856Z,18.03
2019-04-21T07:52:39.505Z,17.72
2019-04-21T07:57:31.576Z,18.18
2019-04-21T08:02:43.745Z,17.90
2019-04-21T08:05:13.525Z,18.32
2019-04-21T08:10:13.962Z,18.55
2019-04-21T08:12:43.191Z,18.44
2019-04-21T08:15:24.347Z,18.60
2019-04-21T08:17:47.197Z,18.75
2019-04-21T08:20:18.500Z,19.18
2019-04-21T08:22:51.679Z,19.09
2019-04-21T08:25:19.381Z,19.08
2019-04-21T08:27:55.534Z,18.96
2019-04-21T08:30:30.570Z,18.98
2019-04-21T08:38:16.823Z,19.59
2019-04-21T08:40:52.879Z,19.46
2019-04-21T08:43:30.621Z,19.68
2019-04-21T08:45:57.392Z,20.24
2019-04-21T08:48:22.421Z,21.00
2019-04-21T08:51:05.968Z,20.45
2019-04-21T08:53:35.767Z,20.47
2019-04-21T08:58:59.022Z,20.86
2019-04-21T09:01:30.354Z,20.49
2019-04-21T09:03:59.794Z,20.90
2019-04-21T09:06:52.574Z,20.95
2019-04-21T09:09:08.163Z,21.27
2019-04-21T09:11:36.339Z,21.60
2019-04-21T09:14:07.106Z,21.55
2019-04-21T09:16:30.637Z,21.31
2019-04-21T09:19:04.669Z,21.32
2019-04-21T09:21:43.649Z,22.21
2019-04-21T09:24:16.151Z,22.55
2019-04-21T09:26:46.047Z,22.45
2019-04-21T09:31:59.573Z,22.89
2019-04-21T09:35:24.053Z,22.99
2019-04-21T09:37:20.332Z,23.17
2019-04-21T09:39:45.198Z,23.19
2019-04-21T09:42:19.334Z,23.36
2019-04-21T09:44:51.983Z,23.67
2019-04-21T09:47:22.933Z,22.68
2019-04-21T09:49:50.203Z,22.92
2019-04-21T09:52:27.868Z,22.82
2019-04-21T09:55:01.785Z,22.47
2019-04-21T09:57:34.714Z,22.47
2019-04-21T10:00:04.857Z,23.10
2019-04-21T10:02:37.554Z,23.04
2019-04-21T10:05:07.782Z,23.31
2019-04-21T10:07:41.726Z,23.25
2019-04-21T10:10:12.807Z,23.40
2019-04-21T10:12:45.695Z,23.05
2019-04-21T10:15:16.803Z,23.71
2019-04-21T10:17:52.399Z,23.69
2019-04-21T10:20:22.383Z,24.07
2019-04-21T10:22:53.011Z,24.07
2019-04-21T10:25:38.668Z,24.14
2019-04-21T10:28:01.506Z,23.92
2019-04-21T10:30:31.277Z,23.99
2019-04-21T10:33:02.347Z,24.48
2019-04-21T10:35:35.324Z,24.23
2019-04-21T10:38:20.559Z,23.48
2019-04-21T10:40:41.451Z,24.21
2019-04-21T10:43:13.525Z,25.21
2019-04-21T10:45:50.619Z,25.53
2019-04-21T10:48:30.153Z,25.54
2019-04-21T10:51:10.654Z,25.77
2019-04-21T10:53:43.054Z,26.09
2019-04-21T10:59:12.100Z,25.78
2019-04-21T11:01:49.178Z,25.43
2019-04-21T11:04:25.435Z,24.95
2019-04-21T11:06:58.268Z,23.88
2019-04-21T11:09:26.370Z,23.88
2019-04-21T11:11:56.002Z,24.03
2019-04-21T11:14:25.434Z,23.95
2019-04-21T11:16:58.437Z,24.75
2019-04-21T11:19:30.677Z,24.34
2019-04-21T11:22:00.869Z,23.99
2019-04-21T11:24:31.409Z,22.84
2019-04-21T11:27:01.849Z,23.19
2019-04-21T11:29:31.399Z,23.59
2019-04-21T11:32:01.035Z,24.22
2019-04-21T11:34:43.165Z,24.42
2019-04-21T11:37:16.424Z,24.81
2019-04-21T11:39:52.116Z,24.81
2019-04-21T11:42:20.005Z,24.81
2019-04-21T11:44:49.538Z,24.85
2019-04-21T11:47:28.033Z,25.24
2019-04-21T11:49:57.316Z,24.86
2019-04-21T11:52:31.009Z,24.48
2019-04-21T11:55:00.893Z,24.71
2019-04-21T11:57:39.303Z,25.19
2019-04-21T12:00:05.970Z,25.74
2019-04-21T12:02:35.498Z,25.82
2019-04-21T12:08:02.046Z,24.64
2019-04-21T12:10:31.529Z,24.40
2019-04-21T12:13:04.230Z,23.79
2019-04-21T12:15:36.762Z,24.09
2019-04-21T12:18:06.091Z,23.87
2019-04-21T12:20:39.802Z,23.66
2019-04-21T12:23:14.319Z,23.35
2019-04-21T12:28:20.083Z,23.69
2019-04-21T12:30:51.686Z,23.89
2019-04-21T12:33:42.200Z,23.72
2019-04-21T12:36:13.782Z,23.10
2019-04-21T12:38:53.589Z,23.01
2019-04-21T12:41:26.577Z,24.06
2019-04-21T12:46:31.841Z,24.52
2019-04-21T12:49:13.885Z,24.31
2019-04-21T12:51:55.556Z,24.98
2019-04-21T12:54:33.563Z,25.19
2019-04-21T12:57:05.428Z,25.35
2019-04-21T12:59:42.658Z,25.61
2019-04-21T13:02:22.259Z,25.64
2019-04-21T13:04:53.016Z,26.06
2019-04-21T13:07:23.549Z,25.79
2019-04-21T13:10:00.119Z,25.40
2019-04-21T13:12:38.017Z,25.65
2019-04-21T13:15:08.803Z,25.65
2019-04-21T13:17:47.405Z,24.40
2019-04-21T13:20:21.123Z,24.53
2019-04-21T13:23:03.810Z,24.63
2019-04-21T13:25:38.087Z,25.13
2019-04-21T13:31:04.831Z,25.51
2019-04-21T13:33:52.198Z,25.64
2019-04-21T13:36:25.569Z,25.51
2019-04-21T13:39:44.361Z,25.35
2019-04-21T13:42:08.749Z,25.49
2019-04-21T13:44:30.811Z,25.46
2019-04-21T13:47:04.743Z,25.19
2019-04-21T13:49:37.211Z,23.97
2019-04-21T13:52:06.812Z,23.46
2019-04-21T13:54:45.557Z,24.26
2019-04-21T13:57:24.231Z,24.76
2019-04-21T14:00:05.682Z,24.75
2019-04-21T14:02:46.848Z,24.97
2019-04-21T14:05:18.108Z,24.31
2019-04-21T14:07:48.136Z,23.95
2019-04-21T14:10:21.892Z,24.34
2019-04-21T14:12:51.286Z,24.45
2019-04-21T14:15:22.101Z,24.65
2019-04-21T14:17:52.918Z,24.88
2019-04-21T14:20:31.520Z,25.18
2019-04-21T14:23:13.521Z,24.79
2019-04-21T14:25:37.644Z,24.81
2019-04-21T14:28:10.193Z,24.82
2019-04-21T14:30:44.140Z,24.12
2019-04-21T14:33:14.208Z,23.83
2019-04-21T14:35:47.142Z,23.23
2019-04-21T14:38:18.571Z,23.28
2019-04-21T14:40:48.677Z,23.18
2019-04-21T14:43:23.641Z,22.89
2019-04-21T14:45:54.738Z,23.00
2019-04-21T14:48:43.174Z,22.55
2019-04-21T14:51:14.495Z,23.19
2019-04-21T14:53:54.415Z,23.63
2019-04-21T14:56:25.043Z,23.63
2019-04-21T14:58:58.988Z,23.83
2019-04-21T15:01:29.910Z,23.92
2019-04-21T15:03:59.878Z,23.90
2019-04-21T15:06:29.648Z,23.59
2019-04-21T15:09:03.402Z,23.65
2019-04-21T15:11:35.987Z,23.65
2019-04-21T15:14:09.451Z,23.57
2019-04-21T15:16:42.776Z,23.19
2019-04-21T15:19:14.801Z,23.19
2019-04-21T15:21:44.678Z,23.19
2019-04-21T15:24:14.347Z,22.71
2019-04-21T15:26:46.534Z,22.35
2019-04-21T15:29:17.077Z,22.35
2019-04-21T15:31:46.724Z,22.34
2019-04-21T15:34:23.934Z,22.34
2019-04-21T15:36:57.970Z,21.63
2019-04-21T15:39:31.825Z,21.29
2019-04-21T15:42:02.718Z,21.09
2019-04-21T15:44:32.556Z,21.11
2019-04-21T15:47:02.110Z,21.29
2019-04-21T15:49:56.898Z,21.29
2019-04-21T15:52:22.146Z,21.04
2019-04-21T15:54:54.603Z,20.96
2019-04-21T15:57:40.580Z,20.68
2019-04-21T16:00:24.636Z,20.53
2019-04-21T16:03:00.422Z,20.35
2019-04-21T16:05:28.637Z,20.13
2019-04-21T16:07:58.216Z,20.01
2019-04-21T16:10:40.865Z,19.93
2019-04-21T16:13:03.481Z,19.68
2019-04-21T16:15:34.608Z,19.60
2019-04-21T16:18:05.599Z,19.58
2019-04-21T16:20:35.513Z,19.41
2019-04-21T16:23:06.689Z,19.32
2019-04-21T16:25:36.956Z,19.37
2019-04-21T16:28:06.966Z,19.20
2019-04-21T16:30:36.349Z,19.12
2019-04-21T16:33:06.019Z,19.01
2019-04-21T16:35:35.753Z,19.00
2019-04-21T16:38:06.094Z,18.91
2019-04-21T16:40:46.806Z,18.79
2019-04-21T16:43:07.990Z,18.75
2019-04-21T16:45:39.014Z,18.55
2019-04-21T16:48:09.491Z,18.38
2019-04-21T16:50:39.499Z,18.24
2019-04-21T16:53:16.706Z,18.14
2019-04-21T16:55:48.981Z,18.15
2019-04-21T16:58:28.756Z,18.05
2019-04-21T17:01:03.261Z,17.98
2019-04-21T17:03:30.635Z,17.87
2019-04-21T17:06:04.351Z,17.77
2019-04-21T17:08:31.834Z,17.71
2019-04-21T17:13:33.578Z,17.46
2019-04-21T17:16:30.064Z,17.60
2019-04-21T17:16:32.052Z,17.34
2019-04-21T17:18:47.636Z,17.30
2019-04-21T17:21:08.757Z,17.15
2019-04-21T17:23:38.440Z,16.95
2019-04-21T17:26:08.976Z,16.73
2019-04-21T17:28:38.605Z,16.63
2019-04-21T17:31:08.524Z,16.51
2019-04-21T17:33:39.224Z,16.38
2019-04-21T17:36:09.256Z,16.21
2019-04-21T17:38:39.722Z,16.08
2019-04-21T17:41:16.587Z,16.07
2019-04-21T17:43:41.637Z,16.03
2019-04-21T17:46:13.642Z,16.07
2019-04-21T17:48:42.944Z,16.07
2019-04-21T17:51:14.100Z,16.11
2019-04-21T17:53:49.390Z,15.93
2019-04-21T17:56:43.922Z,15.73
2019-04-21T17:59:02.901Z,15.60
2019-04-21T18:01:41.952Z,15.47
2019-04-21T18:04:24.118Z,15.44
2019-04-21T18:07:02.098Z,15.38
2019-04-21T18:09:45.418Z,15.25
2019-04-21T18:12:10.929Z,15.07
2019-04-21T18:14:22.623Z,15.04
2019-04-21T18:16:53.503Z,14.91
2019-04-21T18:19:27.896Z,14.84
2019-04-21T18:22:05.526Z,14.82
2019-04-21T18:24:45.949Z,14.78
2019-04-21T18:27:09.761Z,14.75
2019-04-21T18:29:37.121Z,14.72
2019-04-21T18:32:06.639Z,14.73
2019-04-21T18:34:42.872Z,14.67
2019-04-21T18:37:35.034Z,14.67
2019-04-21T18:40:06.712Z,14.55
2019-04-21T18:42:55.520Z,14.49
2019-04-21T18:48:14.344Z,14.39
2019-04-21T18:53:41.385Z,14.10
2019-04-21T18:55:59.913Z,14.02
2019-04-21T18:58:26.758Z,13.93
2019-04-21T19:01:04.517Z,13.80
2019-04-21T19:03:35.660Z,13.64
2019-04-21T19:06:08.773Z,13.51
2019-04-21T19:08:53.488Z,13.47
2019-04-21T19:11:18.912Z,13.43
2019-04-21T19:14:23.550Z,13.35
2019-04-21T19:16:43.162Z,13.39
2019-04-21T19:19:36.659Z,13.34
2019-04-21T19:21:40.562Z,13.28
2019-04-21T19:26:55.595Z,12.94
2019-04-21T19:29:19.901Z,12.61
2019-04-21T19:31:49.486Z,12.19
2019-04-21T19:34:07.734Z,12.00
2019-04-21T19:36:32.777Z,11.87
2019-04-21T19:39:10.122Z,11.71
2019-04-21T19:41:46.842Z,11.68
2019-04-21T19:44:24.664Z,11.58
2019-04-21T19:46:55.763Z,11.42
2019-04-21T19:49:27.831Z,11.41
2019-04-21T19:51:51.564Z,11.47
2019-04-21T19:54:20.216Z,11.50
2019-04-21T19:56:40.905Z,11.45
2019-04-21T19:59:14.035Z,11.43
2019-04-21T20:01:41.668Z,11.40
2019-04-21T20:04:12.377Z,11.41
2019-04-21T20:06:52.276Z,11.39
2019-04-21T20:09:28.135Z,11.37
2019-04-21T20:12:00.867Z,11.31
2019-04-21T20:14:51.017Z,11.15
2019-04-21T20:16:59.307Z,11.08
2019-04-21T20:19:19.222Z,10.97
2019-04-21T20:21:49.213Z,10.92
2019-04-21T20:24:25.070Z,10.86
2019-04-21T20:27:00.131Z,10.74
2019-04-21T20:29:37.476Z,10.66
2019-04-21T20:32:16.311Z,10.65
2019-04-21T20:34:46.139Z,10.55
2019-04-21T20:37:14.827Z,10.55
2019-04-21T20:39:28.322Z,10.68
2019-04-21T20:42:12.779Z,10.67
2019-04-21T20:44:45.137Z,10.57
2019-04-21T20:47:11.278Z,10.44
2019-04-21T20:49:38.555Z,10.45
2019-04-21T20:52:17.568Z,10.39
2019-04-21T20:54:48.119Z,10.36
2019-04-21T20:57:21.905Z,10.28
2019-04-21T20:59:44.448Z,10.21
2019-04-21T21:02:21.917Z,10.12
2019-04-21T21:04:45.794Z,10.06
2019-04-21T21:07:40.438Z,9.95
2019-04-21T21:10:00.522Z,9.88
2019-04-21T21:12:37.300Z,9.80
2019-04-21T21:14:56.766Z,9.41
2019-04-21T21:20:05.583Z,9.66
2019-04-21T21:22:29.159Z,9.72
2019-04-21T21:25:03.897Z,9.75
2019-04-21T21:27:32.161Z,9.63
2019-04-21T21:30:05.597Z,9.50
2019-04-21T21:32:38.074Z,9.42
2019-04-21T21:35:12.033Z,9.34
2019-04-21T21:37:42.774Z,9.31
2019-04-21T21:40:11.184Z,9.34
2019-04-21T21:42:29.573Z,9.36
2019-04-21T21:45:02.934Z,9.36
2019-04-21T21:47:46.239Z,9.33
2019-04-21T21:50:07.265Z,9.28
2019-04-21T21:52:39.823Z,9.17
2019-04-21T21:54:59.751Z,9.12
2019-04-21T21:57:34.150Z,9.00
2019-04-21T22:00:04.727Z,8.90
2019-04-21T22:02:35.969Z,8.88
2019-04-21T22:05:09.248Z,8.84
2019-04-21T22:07:35.571Z,8.88
2019-04-21T22:10:08.527Z,8.86
2019-04-21T22:12:49.126Z,8.83
2019-04-21T22:15:17.306Z,8.84
2019-04-21T22:18:06.050Z,8.88
2019-04-21T22:20:33.568Z,8.87
2019-04-21T22:22:54.278Z,8.93
2019-04-21T22:25:22.877Z,8.91
2019-04-21T22:27:48.706Z,9.03
2019-04-21T22:30:26.892Z,9.04
2019-04-21T22:32:57.105Z,8.99
2019-04-21T22:35:30.100Z,9.00
2019-04-21T22:38:13.988Z,8.84
2019-04-21T22:40:45.258Z,8.82
2019-04-21T22:45:55.866Z,8.59
2019-04-21T22:48:28.588Z,8.51
2019-04-21T22:50:56.517Z,8.44
2019-04-21T22:53:27.983Z,8.31
2019-04-21T22:56:05.814Z,8.28
2019-04-21T22:58:32.007Z,8.15
2019-04-21T23:01:01.928Z,8.15
2019-04-21T23:06:32.336Z,8.18
2019-04-21T23:09:01.506Z,8.13
2019-04-21T23:11:38.662Z,8.20
2019-04-21T23:14:06.518Z,8.24
2019-04-21T23:16:36.286Z,8.06
2019-04-21T23:19:20.076Z,8.03
2019-04-21T23:21:55.294Z,7.87
2019-04-21T23:24:33.089Z,7.71
2019-04-21T23:26:52.090Z,7.54
2019-04-21T23:29:39.589Z,7.40
2019-04-21T23:31:59.206Z,7.36
2019-04-21T23:34:19.757Z,7.37
2019-04-21T23:36:53.040Z,7.53
2019-04-21T23:39:21.575Z,7.66
2019-04-21T23:41:47.876Z,7.65
2019-04-21T23:44:18.810Z,7.68
2019-04-21T23:46:51.094Z,7.69
2019-04-21T23:49:31.927Z,7.67
2019-04-21T23:51:55.610Z,7.57
2019-04-21T23:54:20.318Z,7.47
2019-04-21T23:56:53.559Z,7.42
2019-04-21T23:59:24.919Z,7.36
